Time;durP1;ratioP1;P1;durP2;ratioP2;P2;SDS_P1;SDS_P2;PMS_P1;PMS_P2;Temp;Humidity;BMP_temperature;BMP_pressure;BME280_temperature;BME280_humidity;BME280_pressure;Samples;Min_cycle;Max_cycle;Signal;HPM_P1;HPM_P2
2022/06/22 00:02:08;;;;;;;;;;;;;;;;;;4975000;28;1115;-73
2022/06/22 00:04:36;;;;;;;;;;;;;;;;;;4974831;28;844;-73
2022/06/22 00:07:04;;;;;;;;;;;;;;;;;;4974286;28;1401;-72
2022/06/22 00:09:32;;;;;;;;;;;;;;;;;;4975651;28;927;-73
2022/06/22 00:11:58;;;;;;;;;;;;;;;;;;4974820;28;1923;-71
2022/06/22 00:14:26;;;;;;;;;;;;;;;;;;4974588;28;1065;-74
2022/06/22 00:16:53;;;;;;;;;;;;;;;;;;4956498;28;1327;-72
2022/06/22 00:19:21;;;;;;;;;;;;;;;;;;4974177;28;1132;-72
2022/06/22 00:21:48;;;;;;;;;;;;;;;;;;4976388;28;1525;-72
2022/06/22 00:24:30;;;;;;;;;;;;;;;;;;4974465;28;1065;-72
2022/06/22 00:26:59;;;;;;;;;;;;;;;;;;4974059;28;1342;-72
2022/06/22 00:29:26;;;;;;;;;;;;;;;;;;4956870;28;1350;-72
2022/06/22 00:31:59;;;;;;;;;;;;;;;;;;4956788;28;1967;-72
2022/06/22 00:34:26;;;;;;;;;;;;;;;;;;4957100;28;1261;-73
2022/06/22 00:36:56;;;;;;;;;;;;;;;;;;4973731;28;1324;-73
2022/06/22 00:39:23;;;;;;;;;;;;;;;;;;4974393;28;909;-72
2022/06/22 00:41:52;;;;;;;;;;;;;;;;;;4956998;28;1184;-71
2022/06/22 00:44:19;;;;;;;;;;;;;;;;;;4956470;28;1105;-72
2022/06/22 00:46:51;;;;;;;;;;;;;;;;;;4973350;28;1409;-72
2022/06/22 00:49:18;;;;;;;;;;;;;;;;;;4974138;28;934;-71
2022/06/22 00:51:44;;;;;;;;;;;;;;;;;;4974068;28;1914;-71
2022/06/22 00:54:11;;;;;;;;;;;;;;;;;;4973870;28;970;-70
2022/06/22 00:56:41;;;;;;;;;;;;;;;;;;4955940;28;1339;-71
2022/06/22 00:59:07;;;;;;;;;;;;;;;;;;4973466;28;878;-72
2022/06/22 01:01:37;;;;;;;;;;;;;;;;;;4973853;28;1065;-71
2022/06/22 01:04:04;;;;;;;;;;;;;;;;;;4973745;28;1077;-72
2022/06/22 01:06:32;;;;;;;;;;;;;;;;;;4972866;28;1397;-72
2022/06/22 01:09:00;;;;;;;;;;;;;;;;;;4973406;28;1111;-71
2022/06/22 01:14:12;;;;;;;;;;;;;;;;;;4973092;28;1922;-72
2022/06/22 01:16:40;;;;;;;;;;;;;;;;;;4972798;28;1322;-72
2022/06/22 01:19:07;;;;;;;;;;;;;;;;;;4956305;28;1125;-72
2022/06/22 01:21:34;;;;;;;;;;;;;;;;;;4973286;28;1064;-71
2022/06/22 01:24:05;;;;;;;;;;;;;;;;;;4972997;28;1115;-71
2022/06/22 01:26:52;;;;;;;;;;;;;;;;;;4972512;28;1346;-72
2022/06/22 01:29:20;;;;;;;;;;;;;;;;;;4955903;28;1113;-71
2022/06/22 01:31:50;;;;;;;;;;;;;;;;;;4972856;28;1033;-71
2022/06/22 01:34:16;;;;;;;;;;;;;;;;;;4972248;28;1972;-71
2022/06/22 01:36:43;;;;;;;;;;;;;;;;;;4972369;28;1394;-71
2022/06/22 01:39:11;;;;;;;;;;;;;;;;;;4972897;28;1061;-70
2022/06/22 01:41:38;;;;;;;;;;;;;;;;;;4972928;28;887;-71
2022/06/22 01:44:06;;;;;;;;;;;;;;;;;;4972842;28;1113;-71
2022/06/22 01:46:35;;;;;;;;;;;;;;;;;;4971818;28;1334;-72
2022/06/22 01:49:04;;;;;;;;;;;;;;;;;;4972829;28;1101;-71
2022/06/22 01:51:32;;;;;;;;;;;;;;;;;;4972714;28;1075;-71
2022/06/22 01:53:59;;;;;;;;;;;;;;;;;;4955106;28;1927;-71
2022/06/22 01:56:28;;;;;;;;;;;;;;;;;;4971519;28;1405;-72
2022/06/22 01:58:57;;;;;;;;;;;;;;;;;;4972546;28;977;-71
2022/06/22 02:01:24;;;;;;;;;;;;;;;;;;4955027;28;1050;-71
2022/06/22 02:03:58;;;;;;;;;;;;;;;;;;4972560;28;1116;-71
2022/06/22 02:09:11;;;;;;;;;;;;;;;;;;4972525;28;965;-70
2022/06/22 02:11:39;;;;;;;;;;;;;;;;;;4972406;28;1119;-71
2022/06/22 02:14:08;;;;;;;;;;;;;;;;;;4977273;28;1910;-71
2022/06/22 02:16:36;;;;;;;;;;;;;;;;;;4990340;28;1488;-71
2022/06/22 02:19:11;;;;;;;;;;;;;;;;;;4991672;28;1139;-71
2022/06/22 02:21:38;;;;;;;;;;;;;;;;;;4991763;28;1076;-71
2022/06/22 02:24:05;;;;;;;;;;;;;;;;;;4991443;28;815;-71
2022/06/22 02:26:32;;;;;;;;;;;;;;;;;;4990651;28;1330;-71
2022/06/22 02:28:58;;;;;;;;;;;;;;;;;;4991711;28;693;-71
2022/06/22 02:31:24;;;;;;;;;;;;;;;;;;4975924;28;1511;-71
2022/06/22 02:33:52;;;;;;;;;;;;;;;;;;4954567;28;1915;-71
2022/06/22 02:36:19;;;;;;;;;;;;;;;;;;4971139;28;1307;-71
2022/06/22 02:38:46;;;;;;;;;;;;;;;;;;4972127;28;1064;-71
2022/06/22 02:46:40;;;;;;;;;;;;;;;;;;4953560;28;1415;-71
2022/06/22 02:49:07;;;;;;;;;;;;;;;;;;4972028;28;902;-71
2022/06/22 02:51:36;;;;;;;;;;;;;;;;;;4971944;28;1060;-71
2022/06/22 02:54:03;;;;;;;;;;;;;;;;;;4971782;28;2262;-69
2022/06/22 02:56:32;;;;;;;;;;;;;;;;;;4970940;28;1343;-71
2022/06/22 02:58:58;;;;;;;;;;;;;;;;;;4971670;28;962;-71
2022/06/22 03:01:25;;;;;;;;;;;;;;;;;;4954431;28;1286;-71
2022/06/22 03:03:52;;;;;;;;;;;;;;;;;;4971485;28;1064;-72
2022/06/22 03:06:19;;;;;;;;;;;;;;;;;;4953575;28;1440;-72
2022/06/22 03:08:47;;;;;;;;;;;;;;;;;;4954304;28;1274;-72
2022/06/22 03:11:14;;;;;;;;;;;;;;;;;;4971726;28;847;-72
2022/06/22 03:13:40;;;;;;;;;;;;;;;;;;4971627;28;1976;-72
2022/06/22 03:16:07;;;;;;;;;;;;;;;;;;4970541;28;1387;-70
2022/06/22 03:18:33;;;;;;;;;;;;;;;;;;4971779;28;1073;-72
2022/06/22 03:21:00;;;;;;;;;;;;;;;;;;4971496;28;1631;-72
2022/06/22 03:23:27;;;;;;;;;;;;;;;;;;4971493;28;1128;-72
2022/06/22 03:25:57;;;;;;;;;;;;;;;;;;4971091;28;1433;-71
2022/06/22 03:28:25;;;;;;;;;;;;;;;;;;4970915;28;1076;-71
2022/06/22 03:30:52;;;;;;;;;;;;;;;;;;4954020;28;1160;-70
2022/06/22 03:33:20;;;;;;;;;;;;;;;;;;4954057;28;1910;-71
2022/06/22 03:35:47;;;;;;;;;;;;;;;;;;4953795;28;1438;-71
2022/06/22 03:38:13;;;;;;;;;;;;;;;;;;4975742;28;1330;-69
2022/06/22 03:40:41;;;;;;;;;;;;;;;;;;4989089;28;1379;-71
2022/06/22 03:43:11;;;;;;;;;;;;;;;;;;4990609;28;1247;-71
2022/06/22 03:45:38;;;;;;;;;;;;;;;;;;4990562;28;1092;-70
2022/06/22 03:48:06;;;;;;;;;;;;;;;;;;4984570;28;1398;-71
2022/06/22 03:50:33;;;;;;;;;;;;;;;;;;4990925;28;1167;-70
2022/06/22 03:53:01;;;;;;;;;;;;;;;;;;4990514;28;1914;-71
2022/06/22 03:55:28;;;;;;;;;;;;;;;;;;4990528;28;1069;-72
2022/06/22 03:57:55;;;;;;;;;;;;;;;;;;4990390;28;1396;-72
2022/06/22 04:00:22;;;;;;;;;;;;;;;;;;4994033;28;1190;-72
2022/06/22 04:02:49;;;;;;;;;;;;;;;;;;4991711;28;1886;-71
2022/06/22 04:05:16;;;;;;;;;;;;;;;;;;4994290;28;965;-72
2022/06/22 04:07:42;;;;;;;;;;;;;;;;;;4975437;28;1321;-72
2022/06/22 04:10:14;;;;;;;;;;;;;;;;;;4993081;28;1354;-72
2022/06/22 04:12:41;;;;;;;;;;;;;;;;;;4975047;28;1432;-72
2022/06/22 04:15:10;;;;;;;;;;;;;;;;;;4991953;28;1914;-70
2022/06/22 04:17:39;;;;;;;;;;;;;;;;;;5001207;28;1493;-72
2022/06/22 04:20:08;;;;;;;;;;;;;;;;;;4994560;28;1240;-72
2022/06/22 04:22:35;;;;;;;;;;;;;;;;;;4983829;28;1198;-72
2022/06/22 04:25:03;;;;;;;;;;;;;;;;;;4984152;28;1364;-72
2022/06/22 04:27:30;;;;;;;;;;;;;;;;;;4964382;28;1416;-72
2022/06/22 04:29:57;;;;;;;;;;;;;;;;;;4983613;28;1333;-72
2022/06/22 04:32:24;;;;;;;;;;;;;;;;;;4984276;28;1329;-71
2022/06/22 04:34:52;;;;;;;;;;;;;;;;;;4982540;28;1918;-72
2022/06/22 04:37:21;;;;;;;;;;;;;;;;;;4979171;28;1328;-72
2022/06/22 04:39:49;;;;;;;;;;;;;;;;;;4985562;28;1304;-72
2022/06/22 04:42:15;;;;;;;;;;;;;;;;;;4984349;28;1261;-71
2022/06/22 04:44:43;;;;;;;;;;;;;;;;;;5013013;28;1072;-72
2022/06/22 04:47:11;;;;;;;;;;;;;;;;;;4994207;28;1344;-72
2022/06/22 04:49:38;;;;;;;;;;;;;;;;;;5013079;28;1115;-72
2022/06/22 04:52:10;;;;;;;;;;;;;;;;;;5012897;28;1000;-72
2022/06/22 04:54:37;;;;;;;;;;;;;;;;;;5012950;28;1984;-72
2022/06/22 04:57:05;;;;;;;;;;;;;;;;;;5011945;28;1326;-72
2022/06/22 04:59:31;;;;;;;;;;;;;;;;;;5012924;28;1072;-72
2022/06/22 05:01:58;;;;;;;;;;;;;;;;;;5012747;28;969;-72
2022/06/22 05:04:25;;;;;;;;;;;;;;;;;;5012770;28;1083;-72
2022/06/22 05:06:54;;;;;;;;;;;;;;;;;;4994061;28;1317;-72
2022/06/22 05:09:26;;;;;;;;;;;;;;;;;;5011581;28;1072;-72
2022/06/22 05:11:52;;;;;;;;;;;;;;;;;;5012457;28;842;-71
2022/06/22 05:14:19;;;;;;;;;;;;;;;;;;5012585;28;1972;-72
2022/06/22 05:16:47;;;;;;;;;;;;;;;;;;5011543;28;1372;-72
2022/06/22 05:19:13;;;;;;;;;;;;;;;;;;5012563;28;1329;-72
2022/06/22 05:21:40;;;;;;;;;;;;;;;;;;5012679;28;834;-72
2022/06/22 05:24:07;;;;;;;;;;;;;;;;;;5012263;28;949;-73
2022/06/22 05:26:34;;;;;;;;;;;;;;;;;;5011472;28;1452;-72
2022/06/22 05:29:02;;;;;;;;;;;;;;;;;;4991906;28;1297;-73
2022/06/22 05:31:28;;;;;;;;;;;;;;;;;;5002547;28;1248;-72
2022/06/22 05:33:56;;;;;;;;;;;;;;;;;;4988839;28;1911;-72
2022/06/22 05:36:24;;;;;;;;;;;;;;;;;;4983801;28;1861;-72
2022/06/22 05:38:52;;;;;;;;;;;;;;;;;;4981283;28;1432;-72
2022/06/22 05:41:21;;;;;;;;;;;;;;;;;;4965293;28;1349;-72
2022/06/22 05:43:49;;;;;;;;;;;;;;;;;;4982970;28;1329;-71
2022/06/22 05:46:15;;;;;;;;;;;;;;;;;;4984543;28;1396;-73
2022/06/22 05:48:42;;;;;;;;;;;;;;;;;;4983576;28;1437;-71
2022/06/22 05:51:12;;;;;;;;;;;;;;;;;;4972893;28;748;-72
2022/06/22 05:53:39;;;;;;;;;;;;;;;;;;4972652;28;1919;-72
2022/06/22 05:56:06;;;;;;;;;;;;;;;;;;4953921;28;1341;-70
2022/06/22 05:58:34;;;;;;;;;;;;;;;;;;4997147;28;1181;-72
2022/06/22 06:01:02;;;;;;;;;;;;;;;;;;4994532;28;1228;-72
2022/06/22 06:03:30;;;;;;;;;;;;;;;;;;4992125;28;837;-72
2022/06/22 06:05:57;;;;;;;;;;;;;;;;;;4991727;28;1359;-71
2022/06/22 06:08:38;;;;;;;;;;;;;;;;;;4973846;28;1239;-74
2022/06/22 06:11:04;;;;;;;;;;;;;;;;;;4991883;28;905;-72
2022/06/22 06:13:32;;;;;;;;;;;;;;;;;;4991956;28;1910;-72
2022/06/22 06:15:59;;;;;;;;;;;;;;;;;;4991295;28;1303;-72
2022/06/22 06:18:27;;;;;;;;;;;;;;;;;;4991495;28;1076;-73
2022/06/22 06:20:54;;;;;;;;;;;;;;;;;;4991368;28;937;-73
2022/06/22 06:23:21;;;;;;;;;;;;;;;;;;4991963;28;1131;-74
2022/06/22 06:28:34;;;;;;;;;;;;;;;;;;4991749;28;862;-73
2022/06/22 06:31:05;;;;;;;;;;;;;;;;;;4991631;28;1144;-73
2022/06/22 06:33:34;;;;;;;;;;;;;;;;;;4974130;28;1920;-73
2022/06/22 06:36:03;;;;;;;;;;;;;;;;;;4979370;28;1517;-72
2022/06/22 06:38:30;;;;;;;;;;;;;;;;;;4971735;28;657;-73
2022/06/22 06:40:57;;;;;;;;;;;;;;;;;;4972217;28;1072;-73
2022/06/22 06:43:30;;;;;;;;;;;;;;;;;;4972243;28;1097;-73
2022/06/22 06:45:57;;;;;;;;;;;;;;;;;;4954357;28;1532;-72
2022/06/22 06:48:25;;;;;;;;;;;;;;;;;;4971514;28;1107;-74
2022/06/22 06:50:54;;;;;;;;;;;;;;;;;;4970906;28;1006;-73
2022/06/22 06:53:23;;;;;;;;;;;;;;;;;;4986321;28;1105;-74
2022/06/22 06:55:50;;;;;;;;;;;;;;;;;;4987045;28;2005;-73
2022/06/22 06:58:18;;;;;;;;;;;;;;;;;;4990392;28;1288;-74
2022/06/22 07:00:44;;;;;;;;;;;;;;;;;;4989268;28;1101;-74
2022/06/22 07:03:14;;;;;;;;;;;;;;;;;;4990996;28;949;-74
2022/06/22 07:05:40;;;;;;;;;;;;;;;;;;4990614;28;926;-73
2022/06/22 07:08:09;;;;;;;;;;;;;;;;;;4989819;28;1446;-73
2022/06/22 07:10:36;;;;;;;;;;;;;;;;;;4990469;28;870;-73
2022/06/22 07:13:03;;;;;;;;;;;;;;;;;;4990543;28;1123;-74
2022/06/22 07:15:31;;;;;;;;;;;;;;;;;;4990776;28;1914;-73
2022/06/22 07:18:00;;;;;;;;;;;;;;;;;;4989866;28;1415;-74
2022/06/22 07:20:26;;;;;;;;;;;;;;;;;;4990687;28;787;-74
2022/06/22 07:22:59;;;;;;;;;;;;;;;;;;4988983;28;1268;-74
2022/06/22 07:25:30;;;;;;;;;;;;;;;;;;4990792;28;775;-74
2022/06/22 07:27:57;;;;;;;;;;;;;;;;;;4989670;28;1263;-74
2022/06/22 07:30:25;;;;;;;;;;;;;;;;;;4990615;28;850;-75
2022/06/22 07:32:52;;;;;;;;;;;;;;;;;;4977281;28;1184;-74
2022/06/22 07:35:19;;;;;;;;;;;;;;;;;;4994375;28;1911;-75
2022/06/22 07:37:46;;;;;;;;;;;;;;;;;;4993163;28;1328;-74
2022/06/22 07:40:13;;;;;;;;;;;;;;;;;;4989392;28;1025;-75
2022/06/22 07:42:41;;;;;;;;;;;;;;;;;;4991920;28;1086;-75
2022/06/22 07:45:09;;;;;;;;;;;;;;;;;;4993447;28;1447;-75
2022/06/22 07:47:36;;;;;;;;;;;;;;;;;;4991762;28;1389;-74
2022/06/22 07:50:05;;;;;;;;;;;;;;;;;;4993214;28;1052;-74
2022/06/22 07:52:32;;;;;;;;;;;;;;;;;;4990150;28;1048;-74
2022/06/22 07:55:00;;;;;;;;;;;;;;;;;;4975959;28;1973;-75
2022/06/22 07:57:27;;;;;;;;;;;;;;;;;;4992676;28;1292;-74
2022/06/22 07:59:56;;;;;;;;;;;;;;;;;;4993628;28;878;-75
2022/06/22 08:02:30;;;;;;;;;;;;;;;;;;4993512;28;826;-75
2022/06/22 08:04:56;;;;;;;;;;;;;;;;;;4993684;28;1115;-75
2022/06/22 08:07:24;;;;;;;;;;;;;;;;;;4975110;28;1323;-75
2022/06/22 08:09:53;;;;;;;;;;;;;;;;;;4993273;28;1068;-74
2022/06/22 08:12:21;;;;;;;;;;;;;;;;;;4993324;28;1000;-74
2022/06/22 08:14:49;;;;;;;;;;;;;;;;;;4973204;28;1943;-73
2022/06/22 08:17:17;;;;;;;;;;;;;;;;;;4991375;28;1712;-73
2022/06/22 08:19:44;;;;;;;;;;;;;;;;;;4993542;28;1325;-73
2022/06/22 08:22:10;;;;;;;;;;;;;;;;;;4993054;28;926;-73
2022/06/22 08:24:38;;;;;;;;;;;;;;;;;;4992910;28;826;-71
2022/06/22 08:27:04;;;;;;;;;;;;;;;;;;4992762;28;1350;-72
2022/06/22 08:29:31;;;;;;;;;;;;;;;;;;4975623;28;1118;-71
2022/06/22 08:31:58;;;;;;;;;;;;;;;;;;4993049;28;1104;-72
2022/06/22 08:34:28;;;;;;;;;;;;;;;;;;4992954;28;1973;-72
2022/06/22 08:36:55;;;;;;;;;;;;;;;;;;4992606;28;1338;-72
2022/06/22 08:39:22;;;;;;;;;;;;;;;;;;4984116;28;1473;-72
2022/06/22 08:41:50;;;;;;;;;;;;;;;;;;4973172;28;875;-72
2022/06/22 08:44:26;;;;;;;;;;;;;;;;;;5010577;28;1184;-72
2022/06/22 08:47:02;;;;;;;;;;;;;;;;;;5011815;28;1423;-72
2022/06/22 08:49:43;;;;;;;;;;;;;;;;;;5012010;28;925;-72
2022/06/22 08:52:14;;;;;;;;;;;;;;;;;;5012062;28;1052;-72
2022/06/22 08:54:45;;;;;;;;;;;;;;;;;;5012161;28;1918;-71
2022/06/22 08:57:14;;;;;;;;;;;;;;;;;;5011286;28;1427;-71
2022/06/22 08:59:44;;;;;;;;;;;;;;;;;;5011700;28;1132;-72
2022/06/22 09:02:20;;;;;;;;;;;;;;;;;;4994535;28;1220;-72
2022/06/22 09:04:52;;;;;;;;;;;;;;;;;;5012570;28;898;-72
2022/06/22 09:07:26;;;;;;;;;;;;;;;;;;5011026;28;1434;-73
2022/06/22 09:10:04;;;;;;;;;;;;;;;;;;4994027;28;1016;-73
2022/06/22 09:12:34;;;;;;;;;;;;;;;;;;5011650;28;1002;-73
2022/06/22 09:15:09;;;;;;;;;;;;;;;;;;5011932;28;1919;-73
2022/06/22 09:17:40;;;;;;;;;;;;;;;;;;5010924;28;1385;-73
2022/06/22 09:20:15;;;;;;;;;;;;;;;;;;5011539;28;950;-74
2022/06/22 09:22:45;;;;;;;;;;;;;;;;;;5011452;28;989;-74
2022/06/22 09:25:14;;;;;;;;;;;;;;;;;;5011625;28;955;-73
2022/06/22 09:27:42;;;;;;;;;;;;;;;;;;4992731;28;1366;-72
2022/06/22 09:30:20;;;;;;;;;;;;;;;;;;5011247;28;873;-73
2022/06/22 09:32:51;;;;;;;;;;;;;;;;;;5011299;28;887;-73
2022/06/22 09:35:27;;;;;;;;;;;;;;;;;;5011331;28;1978;-72
2022/06/22 09:38:03;;;;;;;;;;;;;;;;;;5010433;28;1359;-73
2022/06/22 09:40:41;;;;;;;;;;;;;;;;;;5010969;28;1041;-72
2022/06/22 09:43:25;;;;;;;;;;;;;;;;;;5011043;28;1143;-73
2022/06/22 09:45:54;;;;;;;;;;;;;;;;;;4993312;28;1707;-72
2022/06/22 09:48:34;;;;;;;;;;;;;;;;;;4992666;28;1449;-73
2022/06/22 09:51:04;;;;;;;;;;;;;;;;;;4993340;28;1428;-73
2022/06/22 09:53:48;;;;;;;;;;;;;;;;;;5010797;28;795;-73
2022/06/22 09:56:24;;;;;;;;;;;;;;;;;;5009964;28;1918;-73
2022/06/22 09:59:23;;;;;;;;;;;;;;;;;;5010671;28;926;-74
2022/06/22 10:01:52;;;;;;;;;;;;;;;;;;4991351;28;1132;-74
2022/06/22 10:04:37;;;;;;;;;;;;;;;;;;4991431;28;871;-74
2022/06/22 10:07:14;;;;;;;;;;;;;;;;;;4987701;28;1451;-74
2022/06/22 10:09:47;;;;;;;;;;;;;;;;;;4990797;28;696;-74
2022/06/22 10:12:17;;;;;;;;;;;;;;;;;;4991416;28;1052;-74
2022/06/22 10:14:47;;;;;;;;;;;;;;;;;;4973349;28;1926;-73
2022/06/22 10:17:24;;;;;;;;;;;;;;;;;;4973356;28;1493;-74
2022/06/22 10:19:54;;;;;;;;;;;;;;;;;;4991015;28;819;-73
2022/06/22 10:22:25;;;;;;;;;;;;;;;;;;4991163;28;862;-74
2022/06/22 10:24:55;;;;;;;;;;;;;;;;;;4973382;28;1169;-74
2022/06/22 10:27:36;;;;;;;;;;;;;;;;;;4972884;28;1432;-74
2022/06/22 10:30:05;;;;;;;;;;;;;;;;;;4989202;28;1109;-74
2022/06/22 10:32:40;;;;;;;;;;;;;;;;;;4990695;28;1315;-75
2022/06/22 10:35:07;;;;;;;;;;;;;;;;;;4990959;28;1974;-74
2022/06/22 10:37:47;;;;;;;;;;;;;;;;;;4972355;28;1510;-74
2022/06/22 10:46:01;;;;;;;;;;;;;;;;;;4990365;28;1459;-74
2022/06/22 10:48:35;;;;;;;;;;;;;;;;;;4986621;28;1503;-73
2022/06/22 10:51:06;;;;;;;;;;;;;;;;;;4973275;28;1189;-74
2022/06/22 10:53:48;;;;;;;;;;;;;;;;;;4990609;28;764;-74
2022/06/22 10:56:20;;;;;;;;;;;;;;;;;;4989742;28;1919;-73
2022/06/22 10:59:03;;;;;;;;;;;;;;;;;;4990629;28;919;-74
2022/06/22 11:01:33;;;;;;;;;;;;;;;;;;4990378;28;846;-73
2022/06/22 11:04:10;;;;;;;;;;;;;;;;;;4990483;28;767;-73
2022/06/22 11:06:46;;;;;;;;;;;;;;;;;;4974474;28;1411;-73
2022/06/22 11:09:23;;;;;;;;;;;;;;;;;;4976440;28;1160;-73
2022/06/22 11:12:00;;;;;;;;;;;;;;;;;;4994537;28;803;-73
2022/06/22 11:14:40;;;;;;;;;;;;;;;;;;4994454;28;1056;-73
2022/06/22 11:17:10;;;;;;;;;;;;;;;;;;4993827;28;1915;-73
2022/06/22 11:19:47;;;;;;;;;;;;;;;;;;4994004;28;891;-73
2022/06/22 11:22:15;;;;;;;;;;;;;;;;;;4994269;28;1069;-74
2022/06/22 11:24:49;;;;;;;;;;;;;;;;;;4994301;28;791;-73
2022/06/22 11:33:06;;;;;;;;;;;;;;;;;;4993776;28;1110;-73
2022/06/22 11:35:41;;;;;;;;;;;;;;;;;;4993746;28;1914;-73
2022/06/22 11:38:11;;;;;;;;;;;;;;;;;;4993074;28;1421;-74
2022/06/22 11:40:47;;;;;;;;;;;;;;;;;;4993821;28;865;-73
2022/06/22 11:43:19;;;;;;;;;;;;;;;;;;4994036;28;934;-73
2022/06/22 11:45:54;;;;;;;;;;;;;;;;;;4976318;28;1173;-74
2022/06/22 11:48:26;;;;;;;;;;;;;;;;;;4992818;28;1384;-73
2022/06/22 11:50:56;;;;;;;;;;;;;;;;;;4993711;28;1072;-73
2022/06/22 11:53:26;;;;;;;;;;;;;;;;;;4976202;28;906;-73
2022/06/22 11:55:55;;;;;;;;;;;;;;;;;;4993601;28;1934;-73
2022/06/22 11:58:36;;;;;;;;;;;;;;;;;;4992532;28;1416;-73
2022/06/22 12:01:21;;;;;;;;;;;;;;;;;;4990950;28;1183;-72
2022/06/22 12:03:57;;;;;;;;;;;;;;;;;;4993592;28;1048;-73
2022/06/22 12:06:37;;;;;;;;;;;;;;;;;;4992558;28;1445;-72
2022/06/22 12:09:06;;;;;;;;;;;;;;;;;;4975978;28;1009;-71
2022/06/22 12:11:36;;;;;;;;;;;;;;;;;;4993206;28;783;-72
2022/06/22 12:16:58;;;;;;;;;;;;;;;;;;4991807;28;1970;-73
2022/06/22 12:19:26;;;;;;;;;;;;;;;;;;4992864;28;1096;-73
2022/06/22 12:21:59;;;;;;;;;;;;;;;;;;4993209;28;1072;-72
2022/06/22 12:24:29;;;;;;;;;;;;;;;;;;4993099;28;1076;-73
2022/06/22 12:26:58;;;;;;;;;;;;;;;;;;4992375;28;1402;-72
2022/06/22 12:29:33;;;;;;;;;;;;;;;;;;4992672;28;974;-73
2022/06/22 12:32:12;;;;;;;;;;;;;;;;;;4969259;28;1116;-72
2022/06/22 12:34:41;;;;;;;;;;;;;;;;;;4960184;28;1196;-72
2022/06/22 12:37:11;;;;;;;;;;;;;;;;;;4990540;28;1973;-73
2022/06/22 12:39:38;;;;;;;;;;;;;;;;;;4992554;28;1159;-72
2022/06/22 12:42:10;;;;;;;;;;;;;;;;;;4991911;28;923;-73
2022/06/22 12:44:42;;;;;;;;;;;;;;;;;;4992826;28;962;-73
2022/06/22 12:47:15;;;;;;;;;;;;;;;;;;4991649;28;1400;-73
2022/06/22 12:49:50;;;;;;;;;;;;;;;;;;4988396;28;1334;-73
2022/06/22 12:52:18;;;;;;;;;;;;;;;;;;4990790;28;1077;-74
2022/06/22 12:54:45;;;;;;;;;;;;;;;;;;4974837;28;1351;-73
2022/06/22 12:57:13;;;;;;;;;;;;;;;;;;4973907;28;1969;-73
2022/06/22 12:59:40;;;;;;;;;;;;;;;;;;4991416;28;1405;-74
2022/06/22 13:02:07;;;;;;;;;;;;;;;;;;4981568;28;1663;-74
2022/06/22 13:04:34;;;;;;;;;;;;;;;;;;4991785;28;1199;-73
2022/06/22 13:07:02;;;;;;;;;;;;;;;;;;4971545;28;2556;-73
2022/06/22 13:09:29;;;;;;;;;;;;;;;;;;4974539;28;1168;-73
2022/06/22 13:11:55;;;;;;;;;;;;;;;;;;4991213;28;1401;-73
2022/06/22 13:14:25;;;;;;;;;;;;;;;;;;4992399;28;1218;-73
2022/06/22 13:16:52;;;;;;;;;;;;;;;;;;4991053;28;1918;-73
2022/06/22 13:19:19;;;;;;;;;;;;;;;;;;4990325;28;1480;-73
2022/06/22 13:21:50;;;;;;;;;;;;;;;;;;4988157;28;1434;-73
2022/06/22 13:24:20;;;;;;;;;;;;;;;;;;4971529;28;1405;-73
2022/06/22 13:26:48;;;;;;;;;;;;;;;;;;4992964;28;1416;-73
2022/06/22 13:29:21;;;;;;;;;;;;;;;;;;5010713;28;1123;-73
2022/06/22 13:31:49;;;;;;;;;;;;;;;;;;5011451;28;1072;-74
2022/06/22 13:34:16;;;;;;;;;;;;;;;;;;5010866;28;1135;-73
2022/06/22 13:36:52;;;;;;;;;;;;;;;;;;4973680;28;1934;-73
2022/06/22 13:39:23;;;;;;;;;;;;;;;;;;4991554;28;1124;-74
2022/06/22 13:41:56;;;;;;;;;;;;;;;;;;4990836;28;1068;-74
2022/06/22 13:44:35;;;;;;;;;;;;;;;;;;4970551;28;1658;-73
2022/06/22 13:47:16;;;;;;;;;;;;;;;;;;4990586;28;1487;-74
2022/06/22 13:49:44;;;;;;;;;;;;;;;;;;4990138;28;1570;-73
2022/06/22 13:52:20;;;;;;;;;;;;;;;;;;5107533;27;1574;-74
2022/06/22 13:55:01;;;;;;;;;;;;;;;;;;5107208;28;774;-74
2022/06/22 13:57:32;;;;;;;;;;;;;;;;;;5102997;28;1465;-74
2022/06/22 13:59:59;;;;;;;;;;;;;;;;;;5107520;28;1177;-74
2022/06/22 14:02:27;;;;;;;;;;;;;;;;;;5099152;28;1389;-74
2022/06/22 14:04:56;;;;;;;;;;;;;;;;;;5102810;28;1511;-74
2022/06/22 14:07:25;;;;;;;;;;;;;;;;;;5106647;28;1449;-73
2022/06/22 14:09:53;;;;;;;;;;;;;;;;;;5107038;28;1142;-74
2022/06/22 14:12:21;;;;;;;;;;;;;;;;;;5101543;28;1977;-75
2022/06/22 14:14:54;;;;;;;;;;;;;;;;;;5100882;28;1475;-74
2022/06/22 14:17:22;;;;;;;;;;;;;;;;;;5091622;28;1442;-74
2022/06/22 14:19:49;;;;;;;;;;;;;;;;;;5106842;28;1141;-74
2022/06/22 14:22:19;;;;;;;;;;;;;;;;;;5104065;28;1376;-73
2022/06/22 14:24:47;;;;;;;;;;;;;;;;;;5101141;28;1432;-73
2022/06/22 14:27:33;;;;;;;;;;;;;;;;;;5097592;28;1482;-73
2022/06/22 14:30:01;;;;;;;;;;;;;;;;;;5094923;28;1414;-73
2022/06/22 14:32:29;;;;;;;;;;;;;;;;;;5102589;28;1404;-73
2022/06/22 14:34:58;;;;;;;;;;;;;;;;;;5107029;28;1165;-73
2022/06/22 14:37:25;;;;;;;;;;;;;;;;;;5104775;28;1327;-73
2022/06/22 14:39:53;;;;;;;;;;;;;;;;;;5106457;28;1042;-73
2022/06/22 14:42:20;;;;;;;;;;;;;;;;;;5102044;28;1866;-73
2022/06/22 14:44:47;;;;;;;;;;;;;;;;;;5106429;28;1149;-74
2022/06/22 14:47:18;;;;;;;;;;;;;;;;;;5105820;28;1321;-74
2022/06/22 14:49:46;;;;;;;;;;;;;;;;;;5105021;28;1157;-74
2022/06/22 14:52:12;;;;;;;;;;;;;;;;;;5117728;28;1977;-75
2022/06/22 14:54:40;;;;;;;;;;;;;;;;;;5117209;28;1445;-75
2022/06/22 14:57:09;;;;;;;;;;;;;;;;;;5125298;27;1361;-75
2022/06/22 14:59:36;;;;;;;;;;;;;;;;;;5126300;27;1069;-75
2022/06/22 15:02:04;;;;;;;;;;;;;;;;;;5119637;27;1547;-75
2022/06/22 15:04:32;;;;;;;;;;;;;;;;;;5107463;28;1735;-75
2022/06/22 15:07:03;;;;;;;;;;;;;;;;;;5112507;28;1289;-75
2022/06/22 15:09:31;;;;;;;;;;;;;;;;;;5108178;28;1309;-74
2022/06/22 15:14:45;;;;;;;;;;;;;;;;;;5113015;28;921;-75
2022/06/22 15:17:14;;;;;;;;;;;;;;;;;;5112625;28;1379;-75
2022/06/22 15:19:40;;;;;;;;;;;;;;;;;;5109581;28;1468;-74
2022/06/22 15:22:08;;;;;;;;;;;;;;;;;;5112431;28;1156;-75
2022/06/22 15:24:39;;;;;;;;;;;;;;;;;;5109222;28;1121;-75
2022/06/22 15:27:20;;;;;;;;;;;;;;;;;;5093848;28;1340;-74
2022/06/22 15:29:48;;;;;;;;;;;;;;;;;;5100521;28;1399;-73
2022/06/22 15:32:15;;;;;;;;;;;;;;;;;;5107877;28;1953;-74
2022/06/22 15:34:42;;;;;;;;;;;;;;;;;;5108542;28;1497;-74
2022/06/22 15:37:18;;;;;;;;;;;;;;;;;;5108387;28;1373;-74
2022/06/22 15:39:49;;;;;;;;;;;;;;;;;;5111823;28;1152;-74
2022/06/22 15:42:15;;;;;;;;;;;;;;;;;;5112285;28;939;-74
2022/06/22 15:44:42;;;;;;;;;;;;;;;;;;5112015;28;995;-74
2022/06/22 15:47:12;;;;;;;;;;;;;;;;;;5110352;28;1386;-74
2022/06/22 15:49:38;;;;;;;;;;;;;;;;;;5111448;27;1243;-74
2022/06/22 15:52:07;;;;;;;;;;;;;;;;;;5103823;28;1923;-74
2022/06/22 15:54:51;;;;;;;;;;;;;;;;;;5112066;28;1096;-74
2022/06/22 15:57:20;;;;;;;;;;;;;;;;;;5111373;28;1488;-74
2022/06/22 15:59:48;;;;;;;;;;;;;;;;;;5102915;28;1433;-75
2022/06/22 16:02:28;;;;;;;;;;;;;;;;;;5092645;28;1370;-74
2022/06/22 16:04:54;;;;;;;;;;;;;;;;;;5112255;28;1211;-74
2022/06/22 16:07:22;;;;;;;;;;;;;;;;;;5111383;28;1308;-74
2022/06/22 16:09:51;;;;;;;;;;;;;;;;;;5104183;28;1019;-74
2022/06/22 16:15:07;;;;;;;;;;;;;;;;;;5091406;28;953;-74
2022/06/22 16:17:36;;;;;;;;;;;;;;;;;;5091584;28;1376;-75
2022/06/22 16:20:05;;;;;;;;;;;;;;;;;;5092251;28;1087;-74
2022/06/22 16:22:33;;;;;;;;;;;;;;;;;;5091877;28;907;-74
2022/06/22 16:25:00;;;;;;;;;;;;;;;;;;5092201;28;984;-74
2022/06/22 16:27:28;;;;;;;;;;;;;;;;;;5091291;28;1301;-74
2022/06/22 16:29:54;;;;;;;;;;;;;;;;;;5091817;28;961;-74
2022/06/22 16:32:24;;;;;;;;;;;;;;;;;;5091771;28;1967;-74
2022/06/22 16:34:52;;;;;;;;;;;;;;;;;;5091503;28;870;-74
2022/06/22 16:37:21;;;;;;;;;;;;;;;;;;5088817;28;1324;-74
2022/06/22 16:39:50;;;;;;;;;;;;;;;;;;5091584;28;1138;-74
2022/06/22 16:42:18;;;;;;;;;;;;;;;;;;5100111;28;1440;-74
2022/06/22 16:44:50;;;;;;;;;;;;;;;;;;5107980;28;1029;-74
2022/06/22 16:47:16;;;;;;;;;;;;;;;;;;5110127;28;1391;-74
2022/06/22 16:49:43;;;;;;;;;;;;;;;;;;5111765;28;1152;-75
2022/06/22 16:52:15;;;;;;;;;;;;;;;;;;5102158;28;1918;-74
2022/06/22 16:54:42;;;;;;;;;;;;;;;;;;5099858;28;1474;-74
2022/06/22 16:57:09;;;;;;;;;;;;;;;;;;5105169;28;1380;-74
2022/06/22 16:59:39;;;;;;;;;;;;;;;;;;5104450;28;1375;-73
2022/06/22 17:02:08;;;;;;;;;;;;;;;;;;5110290;28;1451;-74
2022/06/22 17:04:34;;;;;;;;;;;;;;;;;;5108514;28;1434;-73
2022/06/22 17:07:01;;;;;;;;;;;;;;;;;;5095401;28;1505;-73
2022/06/22 17:09:31;;;;;;;;;;;;;;;;;;5109172;28;1646;-73
2022/06/22 17:11:57;;;;;;;;;;;;;;;;;;5108917;28;1984;-74
2022/06/22 17:14:26;;;;;;;;;;;;;;;;;;5106296;28;1447;-73
2022/06/22 17:17:00;;;;;;;;;;;;;;;;;;5105645;28;1432;-73
2022/06/22 17:19:27;;;;;;;;;;;;;;;;;;5104843;28;1129;-73
2022/06/22 17:21:54;;;;;;;;;;;;;;;;;;5111254;28;1027;-73
2022/06/22 17:24:23;;;;;;;;;;;;;;;;;;5111050;28;1067;-73
2022/06/22 17:26:54;;;;;;;;;;;;;;;;;;5108907;28;1431;-73
2022/06/22 17:29:21;;;;;;;;;;;;;;;;;;5109138;28;1387;-73
2022/06/22 17:31:49;;;;;;;;;;;;;;;;;;5109465;28;1969;-73
2022/06/22 17:34:17;;;;;;;;;;;;;;;;;;5108101;28;1432;-74
2022/06/22 17:36:46;;;;;;;;;;;;;;;;;;5107798;28;1493;-74
2022/06/22 17:39:18;;;;;;;;;;;;;;;;;;5103009;28;1378;-73
2022/06/22 17:41:47;;;;;;;;;;;;;;;;;;5106724;28;1472;-74
2022/06/22 17:44:17;;;;;;;;;;;;;;;;;;5109178;28;1207;-74
2022/06/22 17:46:44;;;;;;;;;;;;;;;;;;5110089;28;1421;-74
2022/06/22 17:49:11;;;;;;;;;;;;;;;;;;5102978;28;1333;-73
2022/06/22 17:51:38;;;;;;;;;;;;;;;;;;5090546;28;1918;-73
2022/06/22 17:54:11;;;;;;;;;;;;;;;;;;5110739;28;1235;-73
2022/06/22 17:56:40;;;;;;;;;;;;;;;;;;5107080;28;1446;-73